sensor_id;sensor_type;location;lat;lon;timestamp;P1;P2;P0
69349;PMS5003;64554;43.452;4.934;2024-01-06T00:01:13;10.25;10.25;5.00
69349;PMS5003;64554;43.452;4.934;2024-01-06T00:03:40;6.00;6.00;4.00
69349;PMS5003;64554;43.452;4.934;2024-01-06T00:06:06;16.00;12.00;5.67
69349;PMS5003;64554;43.452;4.934;2024-01-06T00:08:33;9.00;9.00;6.75
69349;PMS5003;64554;43.452;4.934;2024-01-06T00:10:59;12.00;11.00;6.00
69349;PMS5003;64554;43.452;4.934;2024-01-06T00:13:29;6.50;6.50;4.25
69349;PMS5003;64554;43.452;4.934;2024-01-06T00:15:55;11.00;7.00;4.00
69349;PMS5003;64554;43.452;4.934;2024-01-06T00:18:22;8.60;7.00;4.40
69349;PMS5003;64554;43.452;4.934;2024-01-06T00:20:49;8.40;8.40;5.40
69349;PMS5003;64554;43.452;4.934;2024-01-06T00:23:15;10.00;8.60;5.00
69349;PMS5003;64554;43.452;4.934;2024-01-06T00:25:41;8.00;8.00;5.75
69349;PMS5003;64554;43.452;4.934;2024-01-06T00:28:08;11.00;9.00;5.00
69349;PMS5003;64554;43.452;4.934;2024-01-06T00:30:34;7.40;7.40;5.00
69349;PMS5003;64554;43.452;4.934;2024-01-06T00:33:01;7.50;7.50;4.25
69349;PMS5003;64554;43.452;4.934;2024-01-06T00:35:27;5.50;5.00;3.00
69349;PMS5003;64554;43.452;4.934;2024-01-06T00:37:54;10.00;7.25;5.25
69349;PMS5003;64554;43.452;4.934;2024-01-06T00:40:21;7.00;7.00;5.00
69349;PMS5003;64554;43.452;4.934;2024-01-06T00:42:48;12.00;8.75;6.00
69349;PMS5003;64554;43.452;4.934;2024-01-06T00:45:15;7.60;6.00;4.00
69349;PMS5003;64554;43.452;4.934;2024-01-06T00:47:41;9.75;8.00;5.00
69349;PMS5003;64554;43.452;4.934;2024-01-06T00:50:08;6.80;5.60;4.00
69349;PMS5003;64554;43.452;4.934;2024-01-06T00:52:34;8.75;8.75;4.50
69349;PMS5003;64554;43.452;4.934;2024-01-06T00:55:01;7.40;6.60;4.80
69349;PMS5003;64554;43.452;4.934;2024-01-06T00:57:27;6.60;6.60;4.60
69349;PMS5003;64554;43.452;4.934;2024-01-06T00:59:54;7.00;7.00;5.00
69349;PMS5003;64554;43.452;4.934;2024-01-06T01:02:21;6.75;6.75;5.00
69349;PMS5003;64554;43.452;4.934;2024-01-06T01:04:48;7.00;7.00;4.60
69349;PMS5003;64554;43.452;4.934;2024-01-06T01:07:14;7.60;7.40;5.00
69349;PMS5003;64554;43.452;4.934;2024-01-06T01:09:41;6.50;6.50;4.00
69349;PMS5003;64554;43.452;4.934;2024-01-06T01:12:07;6.50;6.50;3.50
69349;PMS5003;64554;43.452;4.934;2024-01-06T01:14:34;5.00;5.00;3.50
69349;PMS5003;64554;43.452;4.934;2024-01-06T01:17:00;9.67;6.33;3.00
69349;PMS5003;64554;43.452;4.934;2024-01-06T01:19:26;6.50;6.50;4.00
69349;PMS5003;64554;43.452;4.934;2024-01-06T01:21:53;8.00;7.00;4.00
69349;PMS5003;64554;43.452;4.934;2024-01-06T01:24:22;8.00;7.00;3.00
69349;PMS5003;64554;43.452;4.934;2024-01-06T01:26:49;8.00;7.00;4.00
69349;PMS5003;64554;43.452;4.934;2024-01-06T01:29:16;5.00;5.00;3.00
69349;PMS5003;64554;43.452;4.934;2024-01-06T01:31:42;6.60;5.60;4.00
69349;PMS5003;64554;43.452;4.934;2024-01-06T01:34:09;5.60;5.00;2.60
69349;PMS5003;64554;43.452;4.934;2024-01-06T01:36:36;6.20;6.20;3.80
69349;PMS5003;64554;43.452;4.934;2024-01-06T01:39:02;9.50;9.25;4.50
69349;PMS5003;64554;43.452;4.934;2024-01-06T01:41:28;5.00;5.00;2.00
69349;PMS5003;64554;43.452;4.934;2024-01-06T01:43:55;5.80;4.20;3.20
69349;PMS5003;64554;43.452;4.934;2024-01-06T01:46:25;4.40;4.40;3.00
69349;PMS5003;64554;43.452;4.934;2024-01-06T01:48:52;4.00;4.00;3.00
69349;PMS5003;64554;43.452;4.934;2024-01-06T01:51:20;4.00;4.00;3.00
69349;PMS5003;64554;43.452;4.934;2024-01-06T01:53:46;8.00;5.00;3.00
69349;PMS5003;64554;43.452;4.934;2024-01-06T01:56:13;5.00;5.00;3.00
69349;PMS5003;64554;43.452;4.934;2024-01-06T01:58:40;5.50;4.50;2.50
69349;PMS5003;64554;43.452;4.934;2024-01-06T02:01:07;6.00;5.00;1.75
69349;PMS5003;64554;43.452;4.934;2024-01-06T02:03:34;3.00;3.00;2.40
69349;PMS5003;64554;43.452;4.934;2024-01-06T02:06:01;4.60;4.60;3.00
69349;PMS5003;64554;43.452;4.934;2024-01-06T02:08:27;5.60;4.00;3.00
69349;PMS5003;64554;43.452;4.934;2024-01-06T02:10:54;3.40;3.40;1.40
69349;PMS5003;64554;43.452;4.934;2024-01-06T02:13:21;6.00;5.00;4.00
69349;PMS5003;64554;43.452;4.934;2024-01-06T02:15:47;3.80;3.80;2.80
69349;PMS5003;64554;43.452;4.934;2024-01-06T02:18:14;5.00;5.00;3.00
69349;PMS5003;64554;43.452;4.934;2024-01-06T02:20:44;6.20;4.20;3.00
69349;PMS5003;64554;43.452;4.934;2024-01-06T02:23:12;5.75;4.00;3.00
69349;PMS5003;64554;43.452;4.934;2024-01-06T02:25:38;6.20;6.20;3.20
69349;PMS5003;64554;43.452;4.934;2024-01-06T02:28:05;6.00;6.00;4.00
69349;PMS5003;64554;43.452;4.934;2024-01-06T02:30:31;7.00;5.20;2.80
69349;PMS5003;64554;43.452;4.934;2024-01-06T02:32:58;4.60;4.60;2.20
69349;PMS5003;64554;43.452;4.934;2024-01-06T02:35:25;6.00;6.00;3.67
69349;PMS5003;64554;43.452;4.934;2024-01-06T02:37:51;4.60;4.60;2.00
69349;PMS5003;64554;43.452;4.934;2024-01-06T02:40:17;5.50;5.50;3.00
69349;PMS5003;64554;43.452;4.934;2024-01-06T02:42:44;3.60;3.40;2.40
69349;PMS5003;64554;43.452;4.934;2024-01-06T02:45:10;4.00;4.00;2.00
69349;PMS5003;64554;43.452;4.934;2024-01-06T02:47:37;4.00;4.00;3.00
69349;PMS5003;64554;43.452;4.934;2024-01-06T02:50:04;2.00;2.00;2.00
69349;PMS5003;64554;43.452;4.934;2024-01-06T02:52:31;2.00;2.00;2.00
69349;PMS5003;64554;43.452;4.934;2024-01-06T02:54:57;3.60;3.20;2.00
69349;PMS5003;64554;43.452;4.934;2024-01-06T02:57:24;2.00;1.00;1.00
69349;PMS5003;64554;43.452;4.934;2024-01-06T02:59:50;4.00;2.00;2.00
69349;PMS5003;64554;43.452;4.934;2024-01-06T03:02:17;4.00;2.00;1.00
69349;PMS5003;64554;43.452;4.934;2024-01-06T03:04:43;3.00;3.00;2.00
69349;PMS5003;64554;43.452;4.934;2024-01-06T03:07:10;3.00;3.00;1.00
69349;PMS5003;64554;43.452;4.934;2024-01-06T03:09:36;2.00;2.00;1.50
69349;PMS5003;64554;43.452;4.934;2024-01-06T03:12:05;2.40;2.00;1.40
69349;PMS5003;64554;43.452;4.934;2024-01-06T03:14:34;4.00;2.00;2.00
69349;PMS5003;64554;43.452;4.934;2024-01-06T03:17:00;1.00;1.00;1.00
69349;PMS5003;64554;43.452;4.934;2024-01-06T03:19:27;2.00;2.00;1.00
69349;PMS5003;64554;43.452;4.934;2024-01-06T03:21:54;2.00;2.00;1.00
69349;PMS5003;64554;43.452;4.934;2024-01-06T03:24:21;2.00;2.00;1.00
69349;PMS5003;64554;43.452;4.934;2024-01-06T03:26:47;2.00;1.00;1.00
69349;PMS5003;64554;43.452;4.934;2024-01-06T03:29:14;3.00;1.00;0.00
69349;PMS5003;64554;43.452;4.934;2024-01-06T03:31:43;1.00;1.00;1.00
69349;PMS5003;64554;43.452;4.934;2024-01-06T03:34:11;1.00;1.00;1.00
69349;PMS5003;64554;43.452;4.934;2024-01-06T03:36:38;3.60;2.40;1.00
69349;PMS5003;64554;43.452;4.934;2024-01-06T03:39:04;2.00;2.00;1.00
69349;PMS5003;64554;43.452;4.934;2024-01-06T03:41:31;3.80;1.00;1.00
69349;PMS5003;64554;43.452;4.934;2024-01-06T03:43:57;1.50;1.50;0.50
69349;PMS5003;64554;43.452;4.934;2024-01-06T03:46:24;1.00;1.00;0.00
69349;PMS5003;64554;43.452;4.934;2024-01-06T03:48:51;1.00;1.00;1.00
69349;PMS5003;64554;43.452;4.934;2024-01-06T03:51:17;0.00;0.00;0.00
69349;PMS5003;64554;43.452;4.934;2024-01-06T03:53:44;2.00;2.00;0.40
69349;PMS5003;64554;43.452;4.934;2024-01-06T03:56:12;0.60;0.60;0.00
69349;PMS5003;64554;43.452;4.934;2024-01-06T03:58:39;2.00;2.00;1.00
69349;PMS5003;64554;43.452;4.934;2024-01-06T04:01:06;1.00;1.00;1.00
69349;PMS5003;64554;43.452;4.934;2024-01-06T04:03:32;1.00;1.00;0.75
69349;PMS5003;64554;43.452;4.934;2024-01-06T04:05:59;1.00;1.00;0.00
69349;PMS5003;64554;43.452;4.934;2024-01-06T04:08:26;1.20;1.20;1.00
69349;PMS5003;64554;43.452;4.934;2024-01-06T04:10:52;1.75;1.75;1.00
69349;PMS5003;64554;43.452;4.934;2024-01-06T04:13:18;0.50;0.00;0.00
69349;PMS5003;64554;43.452;4.934;2024-01-06T04:15:45;0.80;0.00;0.00
69349;PMS5003;64554;43.452;4.934;2024-01-06T04:18:11;3.50;1.00;1.00
69349;PMS5003;64554;43.452;4.934;2024-01-06T04:20:38;1.00;1.00;0.60
69349;PMS5003;64554;43.452;4.934;2024-01-06T04:23:05;1.00;1.00;1.00
69349;PMS5003;64554;43.452;4.934;2024-01-06T04:25:31;6.00;1.00;0.00
69349;PMS5003;64554;43.452;4.934;2024-01-06T04:27:58;1.60;1.00;0.00
69349;PMS5003;64554;43.452;4.934;2024-01-06T04:30:24;2.00;1.00;1.00
69349;PMS5003;64554;43.452;4.934;2024-01-06T04:32:52;1.00;1.00;0.00
69349;PMS5003;64554;43.452;4.934;2024-01-06T04:35:19;1.00;1.00;1.00
69349;PMS5003;64554;43.452;4.934;2024-01-06T04:37:46;1.20;1.20;0.20
69349;PMS5003;64554;43.452;4.934;2024-01-06T04:40:14;2.40;2.00;1.00
69349;PMS5003;64554;43.452;4.934;2024-01-06T04:42:40;3.00;2.00;1.00
69349;PMS5003;64554;43.452;4.934;2024-01-06T04:45:07;1.00;1.00;0.00
69349;PMS5003;64554;43.452;4.934;2024-01-06T04:47:34;1.00;1.00;0.20
69349;PMS5003;64554;43.452;4.934;2024-01-06T04:50:01;2.00;2.00;1.00
69349;PMS5003;64554;43.452;4.934;2024-01-06T04:52:27;1.00;1.00;0.00
69349;PMS5003;64554;43.452;4.934;2024-01-06T04:54:54;3.75;3.00;1.00
69349;PMS5003;64554;43.452;4.934;2024-01-06T04:57:20;1.00;1.00;0.00
69349;PMS5003;64554;43.452;4.934;2024-01-06T04:59:47;2.00;1.00;0.00
69349;PMS5003;64554;43.452;4.934;2024-01-06T05:02:13;2.00;2.00;1.00
69349;PMS5003;64554;43.452;4.934;2024-01-06T05:04:40;1.00;1.00;1.00
69349;PMS5003;64554;43.452;4.934;2024-01-06T05:07:06;1.40;1.40;1.00
69349;PMS5003;64554;43.452;4.934;2024-01-06T05:09:33;2.00;1.00;0.00
69349;PMS5003;64554;43.452;4.934;2024-01-06T05:11:59;2.00;1.00;0.00
69349;PMS5003;64554;43.452;4.934;2024-01-06T05:14:26;2.50;2.00;1.00
69349;PMS5003;64554;43.452;4.934;2024-01-06T05:16:52;3.00;1.00;0.00
69349;PMS5003;64554;43.452;4.934;2024-01-06T05:19:19;0.00;0.00;0.00
69349;PMS5003;64554;43.452;4.934;2024-01-06T05:21:47;1.00;1.00;0.00
69349;PMS5003;64554;43.452;4.934;2024-01-06T05:24:14;1.00;1.00;0.00
69349;PMS5003;64554;43.452;4.934;2024-01-06T05:26:41;0.00;0.00;0.00
69349;PMS5003;64554;43.452;4.934;2024-01-06T05:29:07;1.00;1.00;0.00
69349;PMS5003;64554;43.452;4.934;2024-01-06T05:31:34;3.60;0.00;0.00
69349;PMS5003;64554;43.452;4.934;2024-01-06T05:34:00;1.75;1.00;0.00
69349;PMS5003;64554;43.452;4.934;2024-01-06T05:36:27;2.00;0.25;0.00
69349;PMS5003;64554;43.452;4.934;2024-01-06T05:38:53;0.60;0.60;0.00
69349;PMS5003;64554;43.452;4.934;2024-01-06T05:41:20;3.00;1.60;1.00
69349;PMS5003;64554;43.452;4.934;2024-01-06T05:43:46;0.00;0.00;0.00
69349;PMS5003;64554;43.452;4.934;2024-01-06T05:46:20;2.00;1.00;0.00
69349;PMS5003;64554;43.452;4.934;2024-01-06T05:48:46;1.50;1.25;1.00
69349;PMS5003;64554;43.452;4.934;2024-01-06T05:51:13;1.40;1.40;1.00
69349;PMS5003;64554;43.452;4.934;2024-01-06T05:53:40;1.00;1.00;0.00
69349;PMS5003;64554;43.452;4.934;2024-01-06T05:56:08;1.00;1.00;0.00
69349;PMS5003;64554;43.452;4.934;2024-01-06T05:58:35;2.00;2.00;1.00
69349;PMS5003;64554;43.452;4.934;2024-01-06T06:01:02;1.00;1.00;0.00
69349;PMS5003;64554;43.452;4.934;2024-01-06T06:03:29;1.00;1.00;0.20
69349;PMS5003;64554;43.452;4.934;2024-01-06T06:05:55;2.00;2.00;0.00
69349;PMS5003;64554;43.452;4.934;2024-01-06T06:08:22;4.50;3.25;1.00
69349;PMS5003;64554;43.452;4.934;2024-01-06T06:10:49;1.00;1.00;0.00
69349;PMS5003;64554;43.452;4.934;2024-01-06T06:13:28;2.00;2.00;1.00
69349;PMS5003;64554;43.452;4.934;2024-01-06T06:15:55;2.00;0.00;0.00
69349;PMS5003;64554;43.452;4.934;2024-01-06T06:18:21;1.00;1.00;1.00
69349;PMS5003;64554;43.452;4.934;2024-01-06T06:20:48;1.00;1.00;0.50
69349;PMS5003;64554;43.452;4.934;2024-01-06T06:23:14;2.00;2.00;1.00
69349;PMS5003;64554;43.452;4.934;2024-01-06T06:25:41;3.00;3.00;1.00
69349;PMS5003;64554;43.452;4.934;2024-01-06T06:28:07;1.00;1.00;1.00
69349;PMS5003;64554;43.452;4.934;2024-01-06T06:30:34;2.00;1.00;0.50
69349;PMS5003;64554;43.452;4.934;2024-01-06T06:33:00;0.00;0.00;0.00
69349;PMS5003;64554;43.452;4.934;2024-01-06T06:35:27;2.40;1.00;1.00
69349;PMS5003;64554;43.452;4.934;2024-01-06T06:37:54;2.00;2.00;0.40
69349;PMS5003;64554;43.452;4.934;2024-01-06T06:40:20;2.75;1.00;0.00
69349;PMS5003;64554;43.452;4.934;2024-01-06T06:42:47;2.00;2.00;1.00
69349;PMS5003;64554;43.452;4.934;2024-01-06T06:45:14;1.20;1.20;0.20
69349;PMS5003;64554;43.452;4.934;2024-01-06T06:47:40;1.00;1.00;1.00
69349;PMS5003;64554;43.452;4.934;2024-01-06T06:50:07;0.00;0.00;0.00
69349;PMS5003;64554;43.452;4.934;2024-01-06T06:52:33;2.25;1.00;1.00
69349;PMS5003;64554;43.452;4.934;2024-01-06T06:55:00;2.60;2.00;0.60
69349;PMS5003;64554;43.452;4.934;2024-01-06T06:57:26;1.40;1.40;0.00
69349;PMS5003;64554;43.452;4.934;2024-01-06T06:59:53;0.40;0.40;0.00
69349;PMS5003;64554;43.452;4.934;2024-01-06T07:02:19;2.50;1.00;0.50
69349;PMS5003;64554;43.452;4.934;2024-01-06T07:04:46;1.00;0.00;0.00
69349;PMS5003;64554;43.452;4.934;2024-01-06T07:07:12;2.00;1.00;0.00
69349;PMS5003;64554;43.452;4.934;2024-01-06T07:09:40;0.00;0.00;0.00
69349;PMS5003;64554;43.452;4.934;2024-01-06T07:12:06;1.00;1.00;0.00
69349;PMS5003;64554;43.452;4.934;2024-01-06T07:14:33;1.00;1.00;0.00
69349;PMS5003;64554;43.452;4.934;2024-01-06T07:17:00;0.50;0.50;0.00
69349;PMS5003;64554;43.452;4.934;2024-01-06T07:19:26;0.00;0.00;0.00
69349;PMS5003;64554;43.452;4.934;2024-01-06T07:21:53;2.00;2.00;1.00
69349;PMS5003;64554;43.452;4.934;2024-01-06T07:24:19;0.00;0.00;0.00
69349;PMS5003;64554;43.452;4.934;2024-01-06T07:26:46;0.00;0.00;0.00
69349;PMS5003;64554;43.452;4.934;2024-01-06T07:29:12;1.00;0.00;0.00
69349;PMS5003;64554;43.452;4.934;2024-01-06T07:31:39;1.00;1.00;0.00
69349;PMS5003;64554;43.452;4.934;2024-01-06T07:34:05;0.80;0.80;0.00
69349;PMS5003;64554;43.452;4.934;2024-01-06T07:36:32;2.00;2.00;1.00
69349;PMS5003;64554;43.452;4.934;2024-01-06T07:38:59;3.00;1.00;0.50
69349;PMS5003;64554;43.452;4.934;2024-01-06T07:41:25;1.00;1.00;1.00
69349;PMS5003;64554;43.452;4.934;2024-01-06T07:43:52;3.00;1.00;0.00
69349;PMS5003;64554;43.452;4.934;2024-01-06T07:46:18;0.00;0.00;0.00
69349;PMS5003;64554;43.452;4.934;2024-01-06T07:48:45;1.00;1.00;1.00
69349;PMS5003;64554;43.452;4.934;2024-01-06T07:51:12;1.00;1.00;0.00
69349;PMS5003;64554;43.452;4.934;2024-01-06T07:53:39;0.20;0.20;0.00
69349;PMS5003;64554;43.452;4.934;2024-01-06T07:56:05;0.00;0.00;0.00
69349;PMS5003;64554;43.452;4.934;2024-01-06T07:58:32;0.75;0.75;0.00
69349;PMS5003;64554;43.452;4.934;2024-01-06T08:00:59;1.00;1.00;0.00
69349;PMS5003;64554;43.452;4.934;2024-01-06T08:03:25;0.50;0.50;0.00
69349;PMS5003;64554;43.452;4.934;2024-01-06T08:05:52;3.40;3.00;2.00
69349;PMS5003;64554;43.452;4.934;2024-01-06T08:08:18;2.60;2.00;1.00
69349;PMS5003;64554;43.452;4.934;2024-01-06T08:10:46;1.00;1.00;1.00
69349;PMS5003;64554;43.452;4.934;2024-01-06T08:13:12;1.00;1.00;1.00
69349;PMS5003;64554;43.452;4.934;2024-01-06T08:15:39;1.25;1.25;1.00
69349;PMS5003;64554;43.452;4.934;2024-01-06T08:18:05;0.00;0.00;0.00
69349;PMS5003;64554;43.452;4.934;2024-01-06T08:20:32;1.00;1.00;0.00
69349;PMS5003;64554;43.452;4.934;2024-01-06T08:22:58;2.00;0.60;0.00
69349;PMS5003;64554;43.452;4.934;2024-01-06T08:25:25;2.00;2.00;1.00
69349;PMS5003;64554;43.452;4.934;2024-01-06T08:27:51;1.00;1.00;0.00
69349;PMS5003;64554;43.452;4.934;2024-01-06T08:30:18;5.60;3.60;2.00
69349;PMS5003;64554;43.452;4.934;2024-01-06T08:32:45;2.00;1.00;1.00
69349;PMS5003;64554;43.452;4.934;2024-01-06T08:35:12;1.00;1.00;1.00
69349;PMS5003;64554;43.452;4.934;2024-01-06T08:37:39;2.00;1.00;0.00
69349;PMS5003;64554;43.452;4.934;2024-01-06T08:40:06;1.60;1.60;0.00
69349;PMS5003;64554;43.452;4.934;2024-01-06T08:42:33;1.00;1.00;0.00
69349;PMS5003;64554;43.452;4.934;2024-01-06T08:44:59;1.00;1.00;0.00
69349;PMS5003;64554;43.452;4.934;2024-01-06T08:47:26;0.25;0.25;0.00
69349;PMS5003;64554;43.452;4.934;2024-01-06T08:49:52;2.00;2.00;1.00
69349;PMS5003;64554;43.452;4.934;2024-01-06T08:52:19;1.00;1.00;1.00
69349;PMS5003;64554;43.452;4.934;2024-01-06T08:54:45;2.00;2.00;1.00
69349;PMS5003;64554;43.452;4.934;2024-01-06T08:57:12;1.00;1.00;1.00
69349;PMS5003;64554;43.452;4.934;2024-01-06T08:59:38;1.00;1.00;1.00
69349;PMS5003;64554;43.452;4.934;2024-01-06T09:02:06;1.80;1.80;1.00
69349;PMS5003;64554;43.452;4.934;2024-01-06T09:04:32;0.75;0.75;0.00
69349;PMS5003;64554;43.452;4.934;2024-01-06T09:06:59;2.00;2.00;1.00
69349;PMS5003;64554;43.452;4.934;2024-01-06T09:09:26;1.60;1.60;1.00
69349;PMS5003;64554;43.452;4.934;2024-01-06T09:11:54;1.00;1.00;0.00
69349;PMS5003;64554;43.452;4.934;2024-01-06T09:14:20;6.40;6.40;4.00
69349;PMS5003;64554;43.452;4.934;2024-01-06T09:16:47;3.60;2.00;1.40
69349;PMS5003;64554;43.452;4.934;2024-01-06T09:19:13;12.40;12.40;7.40
69349;PMS5003;64554;43.452;4.934;2024-01-06T09:21:40;7.80;3.80;2.00
69349;PMS5003;64554;43.452;4.934;2024-01-06T09:24:06;7.00;5.80;4.40
69349;PMS5003;64554;43.452;4.934;2024-01-06T09:26:33;2.00;2.00;2.00
69349;PMS5003;64554;43.452;4.934;2024-01-06T09:29:03;5.00;5.00;3.60
69349;PMS5003;64554;43.452;4.934;2024-01-06T09:31:29;5.60;5.00;3.60
69349;PMS5003;64554;43.452;4.934;2024-01-06T09:33:59;3.50;3.50;2.50
69349;PMS5003;64554;43.452;4.934;2024-01-06T09:36:28;3.20;3.20;2.20
69349;PMS5003;64554;43.452;4.934;2024-01-06T09:38:55;2.20;2.20;2.00
69349;PMS5003;64554;43.452;4.934;2024-01-06T09:41:21;4.00;4.00;2.00
69349;PMS5003;64554;43.452;4.934;2024-01-06T09:43:48;3.80;3.80;1.80
69349;PMS5003;64554;43.452;4.934;2024-01-06T09:46:24;2.80;1.80;0.80
69349;PMS5003;64554;43.452;4.934;2024-01-06T09:48:54;6.00;6.00;4.00
69349;PMS5003;64554;43.452;4.934;2024-01-06T09:51:22;3.00;3.00;2.00
69349;PMS5003;64554;43.452;4.934;2024-01-06T09:53:49;5.00;5.00;4.00
69349;PMS5003;64554;43.452;4.934;2024-01-06T09:56:19;3.50;1.75;0.50
69349;PMS5003;64554;43.452;4.934;2024-01-06T09:58:45;5.75;5.75;1.50
69349;PMS5003;64554;43.452;4.934;2024-01-06T10:01:12;2.00;2.00;1.20
69349;PMS5003;64554;43.452;4.934;2024-01-06T10:03:41;4.60;2.00;1.00
69349;PMS5003;64554;43.452;4.934;2024-01-06T10:06:07;4.00;3.00;2.00
69349;PMS5003;64554;43.452;4.934;2024-01-06T10:08:36;3.00;2.00;1.00
69349;PMS5003;64554;43.452;4.934;2024-01-06T10:11:02;2.00;2.00;2.00
69349;PMS5003;64554;43.452;4.934;2024-01-06T10:13:29;3.80;3.00;1.00
69349;PMS5003;64554;43.452;4.934;2024-01-06T10:15:55;12.00;11.00;8.00
69349;PMS5003;64554;43.452;4.934;2024-01-06T10:18:22;14.20;12.80;8.80
69349;PMS5003;64554;43.452;4.934;2024-01-06T10:20:51;8.80;8.00;5.60
69349;PMS5003;64554;43.452;4.934;2024-01-06T10:23:18;10.40;10.40;8.00
69349;PMS5003;64554;43.452;4.934;2024-01-06T10:25:44;8.50;7.50;5.50
69349;PMS5003;64554;43.452;4.934;2024-01-06T10:28:11;9.60;8.00;7.00
69349;PMS5003;64554;43.452;4.934;2024-01-06T10:30:38;9.80;7.80;6.80
69349;PMS5003;64554;43.452;4.934;2024-01-06T10:33:08;13.00;13.00;10.00
69349;PMS5003;64554;43.452;4.934;2024-01-06T10:35:34;10.80;10.00;8.00
69349;PMS5003;64554;43.452;4.934;2024-01-06T10:38:03;15.00;15.00;12.00
69349;PMS5003;64554;43.452;4.934;2024-01-06T10:40:29;14.00;13.00;10.00
69349;PMS5003;64554;43.452;4.934;2024-01-06T10:42:56;19.40;18.40;15.00
69349;PMS5003;64554;43.452;4.934;2024-01-06T10:45:25;9.60;9.60;8.00
69349;PMS5003;64554;43.452;4.934;2024-01-06T10:47:54;9.40;9.40;7.40
69349;PMS5003;64554;43.452;4.934;2024-01-06T10:50:21;15.50;14.50;11.00
69349;PMS5003;64554;43.452;4.934;2024-01-06T10:52:48;14.00;13.00;8.00
69349;PMS5003;64554;43.452;4.934;2024-01-06T10:55:15;14.00;14.00;10.00
69349;PMS5003;64554;43.452;4.934;2024-01-06T10:57:43;16.75;16.75;9.00
69349;PMS5003;64554;43.452;4.934;2024-01-06T11:00:11;8.00;8.00;6.00
69349;PMS5003;64554;43.452;4.934;2024-01-06T11:02:39;5.00;5.00;3.00
69349;PMS5003;64554;43.452;4.934;2024-01-06T11:05:06;4.80;4.00;3.00
69349;PMS5003;64554;43.452;4.934;2024-01-06T11:07:34;5.00;3.40;2.00
69349;PMS5003;64554;43.452;4.934;2024-01-06T11:10:12;11.60;10.60;7.00
69349;PMS5003;64554;43.452;4.934;2024-01-06T11:12:44;5.00;5.00;3.00
69349;PMS5003;64554;43.452;4.934;2024-01-06T11:15:10;4.00;4.00;3.40
69349;PMS5003;64554;43.452;4.934;2024-01-06T11:17:57;6.50;6.50;4.00
69349;PMS5003;64554;43.452;4.934;2024-01-06T11:20:25;5.40;5.00;3.00
69349;PMS5003;64554;43.452;4.934;2024-01-06T11:22:53;5.00;5.00;4.00
69349;PMS5003;64554;43.452;4.934;2024-01-06T11:25:20;7.00;5.75;4.00
69349;PMS5003;64554;43.452;4.934;2024-01-06T11:27:47;5.40;5.40;3.60
69349;PMS5003;64554;43.452;4.934;2024-01-06T11:32:47;5.00;5.00;3.67
69349;PMS5003;64554;43.452;4.934;2024-01-06T11:35:14;7.75;7.75;5.00
69349;PMS5003;64554;43.452;4.934;2024-01-06T11:42:56;12.25;9.50;6.00
69349;PMS5003;64554;43.452;4.934;2024-01-06T11:45:27;8.80;7.00;5.20
69349;PMS5003;64554;43.452;4.934;2024-01-06T11:47:57;4.00;4.00;3.00
69349;PMS5003;64554;43.452;4.934;2024-01-06T11:50:29;8.75;8.00;5.00
69349;PMS5003;64554;43.452;4.934;2024-01-06T11:52:56;8.75;8.75;6.25
69349;PMS5003;64554;43.452;4.934;2024-01-06T11:55:22;7.50;7.00;5.00
69349;PMS5003;64554;43.452;4.934;2024-01-06T11:57:49;4.60;4.60;3.00
69349;PMS5003;64554;43.452;4.934;2024-01-06T12:00:16;6.00;6.00;4.50
69349;PMS5003;64554;43.452;4.934;2024-01-06T12:02:43;13.50;12.50;7.50
69349;PMS5003;64554;43.452;4.934;2024-01-06T12:05:14;14.60;14.60;9.80
69349;PMS5003;64554;43.452;4.934;2024-01-06T12:07:41;12.00;12.00;7.00
69349;PMS5003;64554;43.452;4.934;2024-01-06T12:10:09;6.40;6.40;4.40
69349;PMS5003;64554;43.452;4.934;2024-01-06T12:12:35;4.00;3.60;3.00
69349;PMS5003;64554;43.452;4.934;2024-01-06T12:15:02;6.40;6.40;4.60
69349;PMS5003;64554;43.452;4.934;2024-01-06T12:17:29;6.75;6.75;5.00
69349;PMS5003;64554;43.452;4.934;2024-01-06T12:19:56;13.60;12.00;8.60
69349;PMS5003;64554;43.452;4.934;2024-01-06T12:22:23;5.00;3.00;2.00
69349;PMS5003;64554;43.452;4.934;2024-01-06T12:24:50;5.00;3.75;2.00
69349;PMS5003;64554;43.452;4.934;2024-01-06T12:27:16;10.40;10.40;7.00
69349;PMS5003;64554;43.452;4.934;2024-01-06T12:29:43;5.00;5.00;3.00
69349;PMS5003;64554;43.452;4.934;2024-01-06T12:32:10;5.00;4.40;2.60
69349;PMS5003;64554;43.452;4.934;2024-01-06T12:34:36;15.00;15.00;10.00
69349;PMS5003;64554;43.452;4.934;2024-01-06T12:37:03;10.40;10.40;7.00
69349;PMS5003;64554;43.452;4.934;2024-01-06T12:39:30;5.50;4.50;2.00
69349;PMS5003;64554;43.452;4.934;2024-01-06T12:41:57;13.25;13.25;7.75
69349;PMS5003;64554;43.452;4.934;2024-01-06T12:44:26;12.60;12.00;4.60
69349;PMS5003;64554;43.452;4.934;2024-01-06T12:46:53;8.00;6.40;4.00
69349;PMS5003;64554;43.452;4.934;2024-01-06T12:49:20;13.00;13.00;9.75
69349;PMS5003;64554;43.452;4.934;2024-01-06T12:51:46;28.25;28.25;18.25
69349;PMS5003;64554;43.452;4.934;2024-01-06T12:54:13;13.00;13.00;10.00
69349;PMS5003;64554;43.452;4.934;2024-01-06T12:56:40;6.75;4.75;3.75
69349;PMS5003;64554;43.452;4.934;2024-01-06T12:59:06;7.00;7.00;4.25
69349;PMS5003;64554;43.452;4.934;2024-01-06T13:01:33;10.50;7.50;4.00
69349;PMS5003;64554;43.452;4.934;2024-01-06T13:04:00;34.00;31.50;23.00
69349;PMS5003;64554;43.452;4.934;2024-01-06T13:06:27;6.00;6.00;4.00
69349;PMS5003;64554;43.452;4.934;2024-01-06T13:08:54;19.00;18.00;13.00
69349;PMS5003;64554;43.452;4.934;2024-01-06T13:11:20;9.20;9.20;6.20
69349;PMS5003;64554;43.452;4.934;2024-01-06T13:13:47;14.40;13.40;8.40
69349;PMS5003;64554;43.452;4.934;2024-01-06T13:16:13;9.00;9.00;7.00
69349;PMS5003;64554;43.452;4.934;2024-01-06T13:18:40;7.80;6.80;4.80
69349;PMS5003;64554;43.452;4.934;2024-01-06T13:21:07;9.00;9.00;7.20
69349;PMS5003;64554;43.452;4.934;2024-01-06T13:23:34;14.00;14.00;9.60
69349;PMS5003;64554;43.452;4.934;2024-01-06T13:26:00;6.60;5.80;4.00
69349;PMS5003;64554;43.452;4.934;2024-01-06T13:28:27;3.00;3.00;2.00
69349;PMS5003;64554;43.452;4.934;2024-01-06T13:30:53;3.00;3.00;2.00
69349;PMS5003;64554;43.452;4.934;2024-01-06T13:33:20;5.00;3.00;3.00
69349;PMS5003;64554;43.452;4.934;2024-01-06T13:35:47;4.00;4.00;2.00
69349;PMS5003;64554;43.452;4.934;2024-01-06T13:38:13;6.00;4.00;3.00
69349;PMS5003;64554;43.452;4.934;2024-01-06T13:40:40;3.00;3.00;2.00
69349;PMS5003;64554;43.452;4.934;2024-01-06T13:43:06;2.00;2.00;1.75
69349;PMS5003;64554;43.452;4.934;2024-01-06T13:45:35;4.00;4.00;3.00
69349;PMS5003;64554;43.452;4.934;2024-01-06T13:48:02;4.00;4.00;3.00
69349;PMS5003;64554;43.452;4.934;2024-01-06T13:50:35;3.80;3.40;2.00
69349;PMS5003;64554;43.452;4.934;2024-01-06T13:53:01;20.40;20.20;10.40
69349;PMS5003;64554;43.452;4.934;2024-01-06T13:55:29;6.33;6.33;4.33
69349;PMS5003;64554;43.452;4.934;2024-01-06T13:57:55;6.40;5.00;3.00
69349;PMS5003;64554;43.452;4.934;2024-01-06T14:00:22;3.00;3.00;2.00
69349;PMS5003;64554;43.452;4.934;2024-01-06T14:02:49;5.20;4.00;2.00
69349;PMS5003;64554;43.452;4.934;2024-01-06T14:05:15;4.75;4.75;2.75
69349;PMS5003;64554;43.452;4.934;2024-01-06T14:07:43;8.00;5.50;4.50
69349;PMS5003;64554;43.452;4.934;2024-01-06T14:10:15;17.20;17.20;9.40
69349;PMS5003;64554;43.452;4.934;2024-01-06T14:12:42;18.00;18.00;11.40
69349;PMS5003;64554;43.452;4.934;2024-01-06T14:15:09;20.80;20.80;12.00
69349;PMS5003;64554;43.452;4.934;2024-01-06T14:17:35;5.25;4.25;3.25
69349;PMS5003;64554;43.452;4.934;2024-01-06T14:20:02;18.80;17.80;8.80
69349;PMS5003;64554;43.452;4.934;2024-01-06T14:22:29;4.00;4.00;2.00
69349;PMS5003;64554;43.452;4.934;2024-01-06T14:24:55;26.40;26.40;16.20